createdAt,value
2019-04-29T00:00:44.351Z,15.38
2019-04-29T00:01:50.535Z,13.22
2019-04-29T00:02:54.990Z,16.27
2019-04-29T00:03:59.449Z,14.87
2019-04-29T00:05:05.922Z,15.05
2019-04-29T00:06:10.810Z,15.20
2019-04-29T00:07:15.569Z,12.95
2019-04-29T00:08:20.022Z,15.78
2019-04-29T00:09:24.863Z,13.58
2019-04-29T00:10:30.098Z,15.38
2019-04-29T00:11:34.573Z,15.78
2019-04-29T00:12:39.556Z,13.48
2019-04-29T00:13:44.297Z,15.68
2019-04-29T00:14:53.483Z,15.15
2019-04-29T00:16:12.004Z,13.70
2019-04-29T00:17:24.223Z,14.83
2019-04-29T00:18:33.296Z,15.15
2019-04-29T00:19:58.231Z,13.98
2019-04-29T00:21:02.685Z,13.72
2019-04-29T00:22:07.230Z,15.00
2019-04-29T00:23:11.691Z,12.78
2019-04-29T00:24:16.154Z,14.10
2019-04-29T00:25:20.604Z,14.18
2019-04-29T00:26:25.593Z,14.70
2019-04-29T00:27:30.417Z,15.32
2019-04-29T00:28:34.942Z,14.55
2019-04-29T00:29:39.399Z,14.43
2019-04-29T00:30:44.094Z,14.05
2019-04-29T00:31:48.641Z,15.45
2019-04-29T00:32:53.093Z,12.73
2019-04-29T00:33:57.555Z,14.78
2019-04-29T00:35:02.015Z,13.95
2019-04-29T00:36:06.611Z,15.90
2019-04-29T00:37:16.046Z,14.33
2019-04-29T00:38:22.147Z,16.00
2019-04-29T00:39:44.834Z,14.70
2019-04-29T00:41:02.826Z,14.75
2019-04-29T00:42:25.236Z,17.52
2019-04-29T00:43:46.617Z,16.30
2019-04-29T00:44:51.079Z,16.73
2019-04-29T00:45:55.612Z,14.93
2019-04-29T00:47:00.453Z,15.38
2019-04-29T00:48:04.911Z,17.25
2019-04-29T00:49:09.376Z,15.85
2019-04-29T00:50:14.104Z,14.15
2019-04-29T00:51:18.906Z,15.83
2019-04-29T00:52:23.732Z,19.32
2019-04-29T00:53:28.358Z,14.23
2019-04-29T00:54:34.754Z,15.53
2019-04-29T00:55:39.518Z,16.90
2019-04-29T00:56:43.988Z,15.25
2019-04-29T00:57:49.436Z,14.47
2019-04-29T00:58:53.896Z,14.58
2019-04-29T00:59:58.696Z,15.80
2019-04-29T01:01:04.236Z,16.85
2019-04-29T01:02:09.272Z,16.48
2019-04-29T01:03:13.752Z,14.43
2019-04-29T01:04:18.217Z,14.20
2019-04-29T01:05:22.679Z,15.80
2019-04-29T01:06:27.140Z,15.78
2019-04-29T01:07:31.599Z,13.40
2019-04-29T01:08:36.616Z,15.65
2019-04-29T01:09:41.079Z,13.95
2019-04-29T01:10:45.912Z,15.98
2019-04-29T01:11:50.686Z,14.93
2019-04-29T01:12:55.509Z,13.85
2019-04-29T01:13:59.966Z,15.43
2019-04-29T01:15:06.532Z,16.97
2019-04-29T01:16:10.990Z,17.55
2019-04-29T01:17:15.815Z,14.78
2019-04-29T01:18:20.298Z,14.65
2019-04-29T01:19:24.757Z,14.03
2019-04-29T01:20:29.215Z,14.73
2019-04-29T01:21:33.680Z,14.80
2019-04-29T01:22:38.219Z,14.87
2019-04-29T01:23:43.138Z,15.70
2019-04-29T01:24:47.915Z,14.25
2019-04-29T01:25:54.307Z,15.60
2019-04-29T01:27:00.723Z,16.62
2019-04-29T01:28:10.060Z,17.00
2019-04-29T01:29:16.314Z,16.32
2019-04-29T01:30:41.714Z,16.73
2019-04-29T01:31:46.188Z,15.10
2019-04-29T01:32:50.641Z,13.58
2019-04-29T01:33:56.767Z,15.65
2019-04-29T01:35:01.228Z,14.65
2019-04-29T01:36:16.657Z,14.87
2019-04-29T01:37:22.823Z,17.07
2019-04-29T01:38:27.288Z,15.43
2019-04-29T01:39:53.306Z,18.00
2019-04-29T01:41:02.090Z,17.50
2019-04-29T01:42:08.191Z,15.32
2019-04-29T01:43:12.652Z,17.12
2019-04-29T01:44:18.305Z,17.17
2019-04-29T01:45:23.069Z,17.45
2019-04-29T01:46:28.170Z,16.97
2019-04-29T01:47:33.698Z,18.50
2019-04-29T01:48:38.166Z,18.35
2019-04-29T01:49:42.717Z,14.73
2019-04-29T01:50:47.195Z,16.60
2019-04-29T01:51:51.651Z,18.10
2019-04-29T01:52:56.405Z,16.80
2019-04-29T01:54:00.900Z,17.30
2019-04-29T01:55:05.698Z,14.60
2019-04-29T01:56:10.548Z,16.02
2019-04-29T01:57:15.372Z,16.75
2019-04-29T01:58:20.114Z,17.77
2019-04-29T01:59:24.908Z,16.85
2019-04-29T02:00:29.368Z,16.05
2019-04-29T02:01:34.140Z,15.80
2019-04-29T02:02:38.594Z,16.60
2019-04-29T02:03:43.474Z,15.55
2019-04-29T02:04:49.307Z,15.43
2019-04-29T02:05:53.766Z,18.57
2019-04-29T02:06:58.227Z,17.65
2019-04-29T02:08:02.687Z,17.95
2019-04-29T02:09:10.241Z,16.17
2019-04-29T02:10:16.892Z,17.05
2019-04-29T02:11:21.642Z,16.32
2019-04-29T02:12:27.135Z,18.15
2019-04-29T02:13:31.968Z,17.60
2019-04-29T02:14:36.450Z,19.27
2019-04-29T02:15:40.904Z,17.45
2019-04-29T02:16:45.362Z,17.52
2019-04-29T02:17:49.828Z,16.12
2019-04-29T02:18:54.291Z,16.57
2019-04-29T02:19:58.772Z,17.67
2019-04-29T02:21:03.304Z,18.48
2019-04-29T02:22:09.696Z,17.50
2019-04-29T02:23:15.798Z,19.23
2019-04-29T02:24:20.928Z,18.02
2019-04-29T02:25:33.182Z,19.95
2019-04-29T02:26:38.104Z,18.98
2019-04-29T02:27:42.564Z,20.45
2019-04-29T02:28:47.025Z,19.32
2019-04-29T02:29:51.898Z,20.62
2019-04-29T02:30:56.515Z,21.20
2019-04-29T02:32:01.048Z,18.30
2019-04-29T02:33:05.664Z,19.25
2019-04-29T02:34:10.565Z,20.75
2019-04-29T02:35:15.468Z,17.82
2019-04-29T02:36:19.929Z,20.08
2019-04-29T02:37:26.318Z,19.57
2019-04-29T02:38:44.736Z,24.05
2019-04-29T02:39:51.109Z,21.35
2019-04-29T02:41:02.693Z,19.48
2019-04-29T02:42:14.792Z,20.85
2019-04-29T02:43:20.978Z,21.27
2019-04-29T02:44:25.833Z,21.07
2019-04-29T02:45:31.953Z,19.17
2019-04-29T02:46:36.411Z,21.00
2019-04-29T02:47:41.169Z,20.97
2019-04-29T02:48:45.629Z,24.18
2019-04-29T02:49:50.093Z,20.72
2019-04-29T02:50:54.838Z,21.60
2019-04-29T02:51:59.308Z,23.35
2019-04-29T02:53:03.779Z,21.25
2019-04-29T02:54:08.230Z,22.40
2019-04-29T02:55:14.672Z,24.35
2019-04-29T02:56:19.149Z,21.82
2019-04-29T02:57:25.248Z,25.55
2019-04-29T02:58:37.947Z,26.10
2019-04-29T02:59:53.260Z,24.02
2019-04-29T03:01:15.514Z,25.95
2019-04-29T03:02:21.620Z,24.52
2019-04-29T03:03:27.714Z,25.48
2019-04-29T03:04:36.740Z,26.02
2019-04-29T03:05:43.180Z,27.05
2019-04-29T03:06:47.739Z,27.15
2019-04-29T03:07:52.337Z,24.32
2019-04-29T03:08:56.869Z,27.02
2019-04-29T03:10:01.342Z,26.62
2019-04-29T03:11:06.258Z,25.62
2019-04-29T03:12:10.716Z,28.98
2019-04-29T03:13:15.244Z,30.35
2019-04-29T03:14:19.773Z,28.05
2019-04-29T03:15:31.335Z,29.72
2019-04-29T03:16:35.824Z,30.48
2019-04-29T03:17:41.008Z,27.32
2019-04-29T03:18:47.109Z,28.00
2019-04-29T03:20:08.364Z,31.25
2019-04-29T03:21:14.472Z,29.27
2019-04-29T03:22:18.931Z,34.85
2019-04-29T03:23:25.676Z,31.33
2019-04-29T03:24:30.145Z,29.18
2019-04-29T03:25:34.608Z,31.25
2019-04-29T03:26:39.441Z,32.80
2019-04-29T03:27:43.903Z,29.40
2019-04-29T03:28:48.368Z,29.27
2019-04-29T03:29:52.836Z,31.05
2019-04-29T03:30:57.303Z,29.75
2019-04-29T03:32:01.791Z,33.65
2019-04-29T03:33:06.276Z,30.10
2019-04-29T03:34:10.729Z,30.52
2019-04-29T03:35:15.538Z,33.30
2019-04-29T03:36:21.375Z,32.33
2019-04-29T03:37:26.207Z,32.55
2019-04-29T03:38:30.667Z,32.38
2019-04-29T03:39:35.429Z,35.45
2019-04-29T03:40:39.966Z,37.00
2019-04-29T03:41:44.421Z,36.28
2019-04-29T03:42:48.921Z,36.08
2019-04-29T03:43:53.371Z,35.10
2019-04-29T03:44:58.195Z,34.38
2019-04-29T03:46:02.654Z,34.23
2019-04-29T03:47:07.120Z,34.60
2019-04-29T03:48:11.605Z,35.63
2019-04-29T03:49:16.054Z,35.80
2019-04-29T03:50:20.971Z,33.23
2019-04-29T03:51:25.427Z,34.23
2019-04-29T03:52:29.899Z,36.77
2019-04-29T03:53:34.712Z,34.53
2019-04-29T03:54:39.525Z,37.75
2019-04-29T03:55:44.275Z,35.00
2019-04-29T03:56:48.747Z,38.75
2019-04-29T03:57:53.218Z,40.50
2019-04-29T03:58:57.677Z,44.35
2019-04-29T04:00:02.214Z,41.45
2019-04-29T04:01:18.949Z,39.75
2019-04-29T04:02:25.483Z,42.23
2019-04-29T04:03:46.640Z,41.28
2019-04-29T04:05:10.928Z,42.17
2019-04-29T04:06:25.878Z,39.73
2019-04-29T04:07:43.997Z,38.80
2019-04-29T04:09:04.866Z,42.38
2019-04-29T04:09:56.548Z,40.52
2019-04-29T04:11:01.008Z,42.43
2019-04-29T04:12:05.471Z,40.12
2019-04-29T04:13:10.242Z,43.42
2019-04-29T04:14:14.709Z,39.80
2019-04-29T04:15:19.171Z,46.20
2019-04-29T04:16:31.193Z,40.33
2019-04-29T04:17:42.940Z,38.13
2019-04-29T04:18:47.398Z,41.23
2019-04-29T04:19:51.859Z,38.45
2019-04-29T04:20:56.705Z,40.15
2019-04-29T04:22:01.174Z,42.50
2019-04-29T04:23:05.659Z,43.75
2019-04-29T04:24:10.119Z,39.98
2019-04-29T04:25:14.645Z,45.63
2019-04-29T04:26:19.106Z,40.80
2019-04-29T04:27:23.567Z,40.58
2019-04-29T04:28:28.328Z,50.65
2019-04-29T04:29:32.786Z,43.73
2019-04-29T04:30:37.261Z,45.03
2019-04-29T04:31:41.721Z,48.42
2019-04-29T04:32:46.266Z,48.10
2019-04-29T04:33:50.746Z,43.52
2019-04-29T04:34:55.202Z,44.10
2019-04-29T04:35:59.675Z,46.25
2019-04-29T04:37:04.508Z,46.25
2019-04-29T04:38:08.985Z,46.48
2019-04-29T04:39:13.441Z,42.55
2019-04-29T04:40:28.948Z,45.78
2019-04-29T04:41:33.406Z,44.67
2019-04-29T04:42:37.865Z,42.05
2019-04-29T04:43:42.647Z,46.13
2019-04-29T04:44:50.280Z,44.38
2019-04-29T04:45:55.144Z,42.40
2019-04-29T04:46:59.899Z,46.08
2019-04-29T04:48:04.747Z,43.25
2019-04-29T04:49:09.210Z,46.10
2019-04-29T04:50:13.911Z,44.88
2019-04-29T04:51:18.366Z,45.85
2019-04-29T04:52:22.830Z,47.67
2019-04-29T04:53:27.325Z,48.05
2019-04-29T04:54:32.448Z,49.45
2019-04-29T04:55:38.561Z,43.95
2019-04-29T04:56:43.338Z,43.52
2019-04-29T04:57:47.802Z,44.42
2019-04-29T04:58:52.671Z,46.70
2019-04-29T04:59:57.127Z,44.63
2019-04-29T05:01:01.590Z,40.30
2019-04-29T05:02:06.120Z,44.18
2019-04-29T05:03:10.589Z,44.75
2019-04-29T05:04:15.062Z,44.27
2019-04-29T05:05:19.525Z,44.98
2019-04-29T05:06:23.988Z,39.48
2019-04-29T05:07:29.418Z,46.13
2019-04-29T05:08:34.199Z,44.03
2019-04-29T05:09:39.015Z,42.93
2019-04-29T05:10:43.838Z,40.23
2019-04-29T05:11:48.580Z,41.75
2019-04-29T05:12:53.043Z,43.50
2019-04-29T05:13:57.532Z,42.80
2019-04-29T05:15:02.300Z,44.10
2019-04-29T05:16:06.760Z,42.73
2019-04-29T05:17:11.527Z,43.45
2019-04-29T05:18:15.988Z,42.25
2019-04-29T05:19:20.469Z,44.75
2019-04-29T05:20:24.930Z,43.25
2019-04-29T05:21:30.748Z,41.45
2019-04-29T05:22:35.560Z,42.65
2019-04-29T05:23:41.715Z,40.50
2019-04-29T05:24:46.596Z,35.17
2019-04-29T05:25:51.063Z,39.23
2019-04-29T05:26:55.533Z,37.25
2019-04-29T05:28:00.169Z,37.80
2019-04-29T05:29:05.059Z,35.38
2019-04-29T05:30:11.104Z,34.63
2019-04-29T05:31:15.923Z,39.03
2019-04-29T05:32:20.390Z,37.33
2019-04-29T05:33:24.854Z,37.48
2019-04-29T05:34:30.982Z,38.53
2019-04-29T05:35:46.160Z,39.98
2019-04-29T05:36:58.045Z,35.43
2019-04-29T05:38:10.217Z,32.93
2019-04-29T05:39:19.360Z,35.23
2019-04-29T05:40:44.092Z,34.25
2019-04-29T05:41:48.864Z,31.85
2019-04-29T05:42:54.071Z,35.28
2019-04-29T05:44:00.566Z,34.43
2019-04-29T05:45:21.592Z,35.45
2019-04-29T05:46:30.664Z,31.55
2019-04-29T05:47:37.067Z,36.20
2019-04-29T05:48:41.855Z,31.57
2019-04-29T05:49:47.980Z,31.90
2019-04-29T05:50:56.947Z,33.20
2019-04-29T05:52:05.116Z,36.65
2019-04-29T05:53:17.927Z,34.75
2019-04-29T05:54:26.946Z,32.78
2019-04-29T05:55:30.435Z,31.65
2019-04-29T05:56:34.966Z,35.43
2019-04-29T05:57:42.512Z,34.73
2019-04-29T05:58:46.412Z,36.30
2019-04-29T05:59:50.898Z,36.10
2019-04-29T06:00:57.291Z,32.13
2019-04-29T06:02:03.119Z,33.48
2019-04-29T06:03:07.585Z,30.10
2019-04-29T06:04:16.340Z,34.63
2019-04-29T06:05:18.223Z,30.57
2019-04-29T06:06:22.681Z,34.53
2019-04-29T06:07:27.139Z,31.85
2019-04-29T06:08:34.562Z,35.90
2019-04-29T06:09:38.128Z,37.78
2019-04-29T06:10:42.597Z,34.80
2019-04-29T06:11:47.051Z,35.98
2019-04-29T06:12:51.807Z,34.40
2019-04-29T06:13:56.546Z,39.25
2019-04-29T06:15:01.362Z,36.93
2019-04-29T06:16:06.148Z,42.05
2019-04-29T06:17:10.900Z,38.60
2019-04-29T06:18:17.688Z,41.95
2019-04-29T06:19:22.075Z,39.73
2019-04-29T06:20:26.555Z,41.37
2019-04-29T06:21:31.318Z,38.25
2019-04-29T06:22:37.878Z,40.85
2019-04-29T06:23:42.236Z,34.85
2019-04-29T06:24:46.725Z,36.53
2019-04-29T06:25:51.188Z,38.53
2019-04-29T06:26:55.651Z,39.33
2019-04-29T06:28:00.119Z,34.10
2019-04-29T06:29:05.954Z,31.30
2019-04-29T06:30:11.149Z,33.05
2019-04-29T06:31:15.611Z,30.30
2019-04-29T06:32:24.346Z,32.17
2019-04-29T06:33:29.225Z,32.38
2019-04-29T06:34:35.590Z,32.55
2019-04-29T06:35:38.869Z,28.50
2019-04-29T06:36:43.611Z,30.80
2019-04-29T06:37:48.081Z,27.67
2019-04-29T06:38:52.532Z,30.48
2019-04-29T06:39:56.999Z,31.33
2019-04-29T06:41:01.482Z,25.25
2019-04-29T06:42:06.305Z,28.25
2019-04-29T06:43:10.764Z,26.73
2019-04-29T06:44:16.754Z,22.60
2019-04-29T06:45:21.392Z,22.02
2019-04-29T06:46:26.137Z,26.52
2019-04-29T06:47:30.889Z,24.80
2019-04-29T06:48:35.349Z,28.20
2019-04-29T06:49:40.097Z,25.25
2019-04-29T06:50:45.153Z,25.80
2019-04-29T06:51:49.610Z,24.65
2019-04-29T06:52:54.370Z,25.95
2019-04-29T06:53:58.842Z,23.90
2019-04-29T06:55:03.678Z,27.05
2019-04-29T06:56:09.280Z,29.87
2019-04-29T06:57:13.817Z,30.85
2019-04-29T06:58:18.290Z,28.47
2019-04-29T06:59:23.037Z,27.98
2019-04-29T07:00:28.319Z,27.42
2019-04-29T07:01:33.059Z,24.63
2019-04-29T07:02:38.997Z,25.25
2019-04-29T07:03:43.460Z,28.50
2019-04-29T07:04:48.228Z,29.23
2019-04-29T07:05:52.865Z,28.55
2019-04-29T07:06:57.932Z,28.50
2019-04-29T07:08:02.438Z,30.05
2019-04-29T07:09:07.771Z,32.20
2019-04-29T07:10:16.484Z,31.12
2019-04-29T07:11:18.572Z,29.98
2019-04-29T07:12:23.346Z,27.48
2019-04-29T07:13:27.896Z,33.13
2019-04-29T07:14:33.369Z,36.00
2019-04-29T07:15:39.508Z,34.88
2019-04-29T07:16:44.284Z,37.20
2019-04-29T07:17:48.752Z,39.25
2019-04-29T07:18:53.808Z,36.93
2019-04-29T07:20:02.076Z,38.00
2019-04-29T07:21:07.551Z,39.05
2019-04-29T07:22:11.000Z,43.95
2019-04-29T07:23:15.772Z,36.65
2019-04-29T07:24:20.553Z,37.80
2019-04-29T07:25:28.858Z,38.67
2019-04-29T07:26:31.835Z,43.15
2019-04-29T07:27:42.951Z,41.08
2019-04-29T07:28:42.469Z,42.10
2019-04-29T07:29:46.933Z,39.13
2019-04-29T07:31:01.218Z,49.42
2019-04-29T07:31:58.165Z,45.17
2019-04-29T07:33:05.452Z,40.35
2019-04-29T07:34:09.139Z,40.23
2019-04-29T07:35:13.831Z,43.42
2019-04-29T07:36:18.716Z,42.73
2019-04-29T07:37:24.759Z,38.92
2019-04-29T07:38:40.696Z,39.08
2019-04-29T07:39:35.473Z,41.37
2019-04-29T07:40:43.280Z,42.80
2019-04-29T07:41:49.619Z,40.00
2019-04-29T07:42:52.341Z,43.13
2019-04-29T07:43:56.802Z,41.23
2019-04-29T07:45:12.247Z,44.08
2019-04-29T07:46:48.984Z,40.25
2019-04-29T07:47:40.664Z,48.73
2019-04-29T07:48:45.443Z,43.60
2019-04-29T07:49:51.527Z,46.70
2019-04-29T07:50:59.546Z,49.50
2019-04-29T07:52:02.538Z,51.28
2019-04-29T07:53:06.996Z,55.50
2019-04-29T07:54:16.021Z,52.65
2019-04-29T07:55:17.616Z,59.42
2019-04-29T07:56:22.085Z,51.65
2019-04-29T07:57:26.563Z,50.03
2019-04-29T07:58:31.313Z,48.92
2019-04-29T07:59:38.527Z,48.45
2019-04-29T08:00:44.521Z,52.40
2019-04-29T08:01:48.390Z,58.73
2019-04-29T08:02:52.871Z,56.35
2019-04-29T08:03:58.971Z,54.93
2019-04-29T08:05:21.163Z,50.52
2019-04-29T08:06:26.077Z,55.63
2019-04-29T08:07:31.294Z,59.88
2019-04-29T08:08:36.292Z,51.95
2019-04-29T08:09:44.131Z,55.03
2019-04-29T08:10:55.878Z,55.38
2019-04-29T08:11:54.415Z,57.00
2019-04-29T08:12:59.638Z,46.77
2019-04-29T08:14:04.917Z,55.83
2019-04-29T08:15:09.825Z,49.38
2019-04-29T08:16:17.081Z,54.30
2019-04-29T08:17:22.176Z,55.30
2019-04-29T08:18:26.651Z,52.30
2019-04-29T08:19:31.661Z,57.15
2019-04-29T08:20:39.940Z,52.60
2019-04-29T08:21:45.614Z,51.90
2019-04-29T08:22:49.967Z,50.30
2019-04-29T08:23:54.430Z,52.17
2019-04-29T08:24:58.894Z,50.20
2019-04-29T08:26:04.512Z,59.50
2019-04-29T08:27:09.158Z,48.63
2019-04-29T08:28:13.932Z,54.00
2019-04-29T08:29:19.454Z,58.15
2019-04-29T08:30:24.228Z,49.63
2019-04-29T08:31:28.995Z,60.50
2019-04-29T08:32:36.459Z,55.85
2019-04-29T08:33:42.528Z,57.00
2019-04-29T08:34:47.790Z,52.40
2019-04-29T08:35:52.534Z,58.98
2019-04-29T08:36:57.286Z,55.10
2019-04-29T08:38:01.772Z,52.78
2019-04-29T08:39:09.285Z,67.62
2019-04-29T08:40:16.859Z,49.67
2019-04-29T08:41:28.304Z,52.13
2019-04-29T08:42:31.831Z,48.00
2019-04-29T08:43:38.224Z,54.18
2019-04-29T08:44:50.533Z,51.68
2019-04-29T08:45:56.628Z,55.38
2019-04-29T08:47:11.425Z,48.02
2019-04-29T08:48:15.907Z,55.73
2019-04-29T08:49:20.363Z,53.55
2019-04-29T08:50:25.147Z,51.88
2019-04-29T08:51:29.900Z,56.45
2019-04-29T08:52:34.656Z,50.65
2019-04-29T08:53:39.427Z,49.85
2019-04-29T08:54:44.174Z,53.65
2019-04-29T08:55:48.927Z,54.23
2019-04-29T08:57:02.934Z,50.98
2019-04-29T08:57:59.861Z,53.70
2019-04-29T08:59:04.389Z,49.05
2019-04-29T09:00:09.899Z,46.80
2019-04-29T09:01:14.429Z,55.63
2019-04-29T09:02:33.097Z,52.75
2019-04-29T09:03:39.219Z,54.65
2019-04-29T09:04:33.266Z,53.05
2019-04-29T09:05:37.671Z,50.60
2019-04-29T09:06:42.129Z,53.08
2019-04-29T09:07:46.593Z,49.05
2019-04-29T09:08:56.201Z,51.33
2019-04-29T09:10:01.829Z,57.03
2019-04-29T09:11:08.269Z,46.45
2019-04-29T09:12:10.354Z,59.30
2019-04-29T09:13:14.831Z,54.08
2019-04-29T09:14:19.293Z,59.55
2019-04-29T09:15:23.827Z,54.10
2019-04-29T09:16:28.436Z,53.15
2019-04-29T09:17:32.903Z,61.80
2019-04-29T09:18:37.380Z,51.80
2019-04-29T09:19:42.132Z,56.08
2019-04-29T09:20:47.960Z,59.67
2019-04-29T09:21:56.739Z,49.03
2019-04-29T09:23:03.149Z,57.38
2019-04-29T09:24:07.631Z,56.77
2019-04-29T09:25:28.629Z,63.20
2019-04-29T09:26:34.801Z,51.23
2019-04-29T09:27:45.063Z,54.45
2019-04-29T09:28:49.815Z,56.98
2019-04-29T09:29:54.304Z,56.50
2019-04-29T09:31:00.407Z,59.85
2019-04-29T09:32:06.043Z,58.38
2019-04-29T09:33:13.205Z,57.75
2019-04-29T09:34:19.829Z,56.20
2019-04-29T09:35:23.477Z,58.05
2019-04-29T09:36:28.948Z,55.08
2019-04-29T09:37:34.039Z,51.15
2019-04-29T09:38:38.526Z,53.98
2019-04-29T09:39:44.634Z,49.55
2019-04-29T09:40:54.571Z,49.45
2019-04-29T09:41:58.819Z,47.58
2019-04-29T09:43:21.474Z,57.08
2019-04-29T09:44:45.022Z,47.93
2019-04-29T09:45:53.889Z,50.43
2019-04-29T09:46:57.344Z,47.33
2019-04-29T09:48:02.096Z,48.52
2019-04-29T09:49:06.566Z,55.23
2019-04-29T09:50:11.289Z,49.23
2019-04-29T09:51:17.890Z,48.80
2019-04-29T09:52:21.991Z,53.48
2019-04-29T09:53:26.745Z,51.73
2019-04-29T09:54:31.201Z,50.00
2019-04-29T09:55:39.836Z,51.10
2019-04-29T09:56:41.849Z,51.13
2019-04-29T09:57:46.311Z,63.73
2019-04-29T09:58:52.413Z,60.73
2019-04-29T10:00:05.247Z,63.25
2019-04-29T10:01:30.383Z,62.15
2019-04-29T10:02:42.239Z,49.55
2019-04-29T10:03:57.132Z,50.25
2019-04-29T10:05:12.027Z,51.40
2019-04-29T10:06:33.963Z,55.45
2019-04-29T10:07:38.509Z,48.58
2019-04-29T10:08:43.045Z,44.93
2019-04-29T10:09:56.925Z,48.58
2019-04-29T10:10:53.761Z,59.60
2019-04-29T10:11:58.223Z,48.80
2019-04-29T10:13:02.695Z,41.53
2019-04-29T10:14:07.595Z,41.83
2019-04-29T10:15:14.081Z,48.58
2019-04-29T10:16:38.565Z,46.28
2019-04-29T10:17:53.565Z,55.15
2019-04-29T10:19:13.938Z,40.98
2019-04-29T10:20:22.973Z,43.08
2019-04-29T10:21:27.719Z,50.38
2019-04-29T10:22:32.362Z,58.28
2019-04-29T10:23:36.826Z,49.70
2019-04-29T10:24:41.294Z,41.98
2019-04-29T10:25:46.135Z,46.35
2019-04-29T10:26:50.598Z,40.00
2019-04-29T10:27:55.067Z,33.67
2019-04-29T10:29:01.175Z,41.18
2019-04-29T10:30:09.803Z,38.02
2019-04-29T10:31:14.374Z,42.03
2019-04-29T10:32:19.390Z,40.15
2019-04-29T10:33:24.979Z,42.53
2019-04-29T10:34:31.707Z,37.42
2019-04-29T10:35:36.052Z,42.20
2019-04-29T10:36:40.896Z,39.25
2019-04-29T10:37:45.728Z,34.58
2019-04-29T10:38:51.164Z,35.40
2019-04-29T10:40:10.592Z,32.42
2019-04-29T10:42:16.966Z,35.58
2019-04-29T10:43:29.196Z,35.15
2019-04-29T10:44:41.304Z,38.15
2019-04-29T10:45:53.125Z,38.38
2019-04-29T10:47:11.393Z,36.77
2019-04-29T10:48:17.566Z,37.15
2019-04-29T10:49:26.999Z,35.50
2019-04-29T10:50:33.205Z,35.68
2019-04-29T10:51:37.916Z,34.43
2019-04-29T10:52:43.577Z,37.35
2019-04-29T10:54:00.046Z,43.08
2019-04-29T11:00:27.609Z,39.63
2019-04-29T11:02:01.684Z,40.55
2019-04-29T11:03:04.861Z,47.85
2019-04-29T11:04:09.511Z,39.90
2019-04-29T11:05:32.739Z,47.55
2019-04-29T11:06:37.485Z,54.45
2019-04-29T11:07:43.864Z,42.53
2019-04-29T11:08:52.722Z,54.75
2019-04-29T11:10:24.154Z,41.88
2019-04-29T11:11:23.259Z,44.45
2019-04-29T11:12:24.827Z,36.65
2019-04-29T11:13:29.807Z,40.20
2019-04-29T11:14:37.583Z,38.83
2019-04-29T11:15:40.494Z,40.23
2019-04-29T11:16:47.116Z,48.45
2019-04-29T11:17:59.308Z,45.67
2019-04-29T11:19:18.886Z,38.88
2019-04-29T11:20:24.990Z,34.33
2019-04-29T11:21:31.272Z,41.50
2019-04-29T11:22:40.173Z,42.60
2019-04-29T11:23:50.571Z,41.20
2019-04-29T11:25:05.593Z,30.65
2019-04-29T11:26:28.034Z,35.83
2019-04-29T11:27:36.968Z,32.50
2019-04-29T11:28:41.527Z,33.75
2019-04-29T11:29:46.299Z,33.85
2019-04-29T11:30:50.824Z,32.08
2019-04-29T11:31:55.971Z,36.20
2019-04-29T11:33:18.173Z,35.65
2019-04-29T11:34:24.341Z,31.30
2019-04-29T11:35:48.763Z,36.30
2019-04-29T11:37:00.758Z,31.17
2019-04-29T11:40:43.484Z,31.85
2019-04-29T11:41:43.499Z,33.80
2019-04-29T11:42:47.964Z,26.75
2019-04-29T11:43:52.909Z,32.90
2019-04-29T11:45:01.894Z,35.98
2019-04-29T11:46:03.640Z,29.20
2019-04-29T11:47:08.411Z,29.37
2019-04-29T11:48:13.035Z,32.83
2019-04-29T11:49:19.460Z,36.63
2019-04-29T11:50:45.165Z,26.57
2019-04-29T11:52:08.462Z,33.45
2019-04-29T11:52:55.645Z,31.20
2019-04-29T11:54:00.191Z,29.37
2019-04-29T11:55:08.085Z,28.42
2019-04-29T11:56:12.596Z,29.23
2019-04-29T11:57:18.763Z,33.63
2019-04-29T11:58:27.548Z,32.90
2019-04-29T11:59:33.648Z,25.75
2019-04-29T12:00:39.827Z,25.95
2019-04-29T12:01:51.008Z,30.85
2019-04-29T12:02:53.897Z,25.37
2019-04-29T12:04:08.851Z,29.42
2019-04-29T12:05:17.889Z,30.65
2019-04-29T12:06:23.217Z,31.25
2019-04-29T12:07:32.517Z,30.62
2019-04-29T12:08:34.627Z,26.35
2019-04-29T12:09:39.540Z,28.95
2019-04-29T12:10:52.068Z,28.00
2019-04-29T12:11:50.824Z,28.35
2019-04-29T12:12:55.512Z,28.32
2019-04-29T12:14:07.373Z,30.05
2019-04-29T12:15:15.116Z,33.15
2019-04-29T12:16:27.365Z,30.62
2019-04-29T12:17:33.567Z,31.17
2019-04-29T12:18:39.921Z,27.30
2019-04-29T12:19:49.277Z,26.07
2019-04-29T12:21:01.145Z,24.47
2019-04-29T12:22:09.112Z,25.97
2019-04-29T12:23:15.697Z,26.73
2019-04-29T12:24:18.538Z,26.02
2019-04-29T12:25:27.331Z,29.42
2019-04-29T12:26:30.188Z,27.32
2019-04-29T12:27:34.937Z,35.52
2019-04-29T12:28:42.725Z,22.05
2019-04-29T12:29:48.835Z,37.70
2019-04-29T12:30:55.368Z,27.07
2019-04-29T12:32:07.253Z,26.02
2019-04-29T12:33:19.078Z,50.90
2019-04-29T12:34:28.154Z,24.27
2019-04-29T12:35:50.746Z,24.65
2019-04-29T12:36:54.866Z,24.00
2019-04-29T12:38:00.773Z,28.02
2019-04-29T12:39:11.983Z,21.62
2019-04-29T12:40:24.281Z,23.75
2019-04-29T12:41:49.420Z,23.00
2019-04-29T12:42:58.590Z,29.40
2019-04-29T12:44:07.476Z,25.40
2019-04-29T12:45:19.531Z,22.85
2019-04-29T12:46:24.062Z,24.90
2019-04-29T12:47:36.212Z,85.28
2019-04-29T12:48:40.677Z,28.05
2019-04-29T12:49:46.462Z,28.05
2019-04-29T12:50:57.460Z,28.10
2019-04-29T12:51:57.484Z,26.52
2019-04-29T12:53:02.020Z,23.50
2019-04-29T12:54:07.060Z,24.02
2019-04-29T12:55:20.213Z,18.30
2019-04-29T12:56:21.356Z,29.98
2019-04-29T12:57:26.113Z,22.00
2019-04-29T12:58:31.553Z,22.32
2019-04-29T12:59:37.306Z,18.00
2019-04-29T13:00:48.297Z,20.17
2019-04-29T13:01:57.690Z,24.10
2019-04-29T13:03:11.704Z,25.00
2019-04-29T13:04:33.514Z,25.90
2019-04-29T13:05:57.560Z,22.20
2019-04-29T13:06:56.023Z,21.17
2019-04-29T13:08:16.953Z,18.60
2019-04-29T13:09:35.129Z,20.05
2019-04-29T13:10:44.331Z,20.45
2019-04-29T13:11:56.029Z,24.30
2019-04-29T13:12:58.020Z,26.45
2019-04-29T13:14:02.155Z,22.42
2019-04-29T13:15:24.975Z,24.35
2019-04-29T13:16:31.365Z,28.38
2019-04-29T13:17:40.179Z,21.33
2019-04-29T13:18:55.811Z,21.37
2019-04-29T13:20:07.277Z,22.58
2019-04-29T13:21:10.692Z,23.50
2019-04-29T13:22:17.122Z,21.85
2019-04-29T13:23:33.148Z,22.50
2019-04-29T13:24:28.132Z,24.63
2019-04-29T13:25:32.703Z,21.90
2019-04-29T13:26:40.095Z,23.67
2019-04-29T13:27:43.339Z,19.82
2019-04-29T13:29:03.247Z,23.52
2019-04-29T13:29:53.969Z,21.25
2019-04-29T13:30:58.460Z,26.55
2019-04-29T13:32:02.921Z,22.62
2019-04-29T13:33:16.354Z,19.52
2019-04-29T13:34:24.040Z,27.98
2019-04-29T13:35:21.746Z,29.77
2019-04-29T13:36:27.391Z,22.20
2019-04-29T13:37:32.132Z,18.42
2019-04-29T13:38:36.596Z,27.77
2019-04-29T13:39:41.056Z,26.05
2019-04-29T13:40:45.834Z,20.45
2019-04-29T13:41:57.614Z,21.12
2019-04-29T13:42:58.026Z,17.07
2019-04-29T13:44:05.639Z,22.37
2019-04-29T13:45:13.567Z,21.70
2019-04-29T13:46:20.110Z,20.17
2019-04-29T13:47:42.487Z,22.35
2019-04-29T13:48:55.950Z,20.80
2019-04-29T13:50:17.141Z,17.55
2019-04-29T13:51:33.984Z,17.60
2019-04-29T13:52:22.130Z,21.85
2019-04-29T13:53:26.600Z,22.70
2019-04-29T13:54:31.297Z,43.75
2019-04-29T13:55:47.703Z,23.10
2019-04-29T13:56:55.565Z,15.40
2019-04-29T13:57:49.523Z,20.40
2019-04-29T13:58:57.627Z,18.05
2019-04-29T14:00:04.958Z,32.17
2019-04-29T14:01:32.972Z,23.02
2019-04-29T14:02:36.814Z,19.40
2019-04-29T14:03:55.783Z,55.75
2019-04-29T14:05:02.284Z,47.08
2019-04-29T14:06:08.194Z,31.17
2019-04-29T14:07:14.096Z,51.05
2019-04-29T14:08:19.187Z,23.80
2019-04-29T14:09:24.112Z,24.95
2019-04-29T14:10:28.580Z,23.65
2019-04-29T14:11:33.073Z,17.37
2019-04-29T14:13:04.978Z,19.02
2019-04-29T14:13:48.367Z,20.43
2019-04-29T14:14:53.889Z,22.75
2019-04-29T14:15:57.967Z,21.42
2019-04-29T14:17:17.412Z,16.12
2019-04-29T14:18:11.773Z,14.65
2019-04-29T14:19:20.483Z,16.55
2019-04-29T14:20:21.816Z,17.20
2019-04-29T14:21:30.088Z,17.25
2019-04-29T14:22:32.889Z,19.00
2019-04-29T14:23:37.359Z,17.62
2019-04-29T14:24:41.825Z,13.45
2019-04-29T14:25:46.409Z,18.00
2019-04-29T14:26:52.111Z,19.00
2019-04-29T14:39:18.982Z,15.10
2019-04-29T14:40:51.688Z,37.67